sensor_id;sensor_type;location;lat;lon;timestamp;pressure;altitude;pressure_sealevel;temperature;humidity
74336;BME280;62755;-33.398;-70.572;2023-08-24T00:01:13;93395.00;;;9.23;72.63
74336;BME280;62755;-33.398;-70.572;2023-08-24T00:03:45;93393.91;;;9.14;73.62
74336;BME280;62755;-33.398;-70.572;2023-08-24T00:06:15;93397.44;;;9.04;74.08
74336;BME280;62755;-33.398;-70.572;2023-08-24T00:08:44;93392.16;;;8.93;74.84
74336;BME280;62755;-33.398;-70.572;2023-08-24T00:11:14;93376.06;;;8.97;74.38
74336;BME280;62755;-33.398;-70.572;2023-08-24T00:13:44;93359.41;;;8.75;74.14
74336;BME280;62755;-33.398;-70.572;2023-08-24T00:16:16;93391.44;;;8.85;73.64
74336;BME280;62755;-33.398;-70.572;2023-08-24T00:18:47;93382.59;;;8.96;72.43
74336;BME280;62755;-33.398;-70.572;2023-08-24T00:21:16;93364.25;;;8.91;72.46
74336;BME280;62755;-33.398;-70.572;2023-08-24T00:23:49;93359.25;;;9.00;71.86
74336;BME280;62755;-33.398;-70.572;2023-08-24T00:26:19;93368.50;;;8.84;72.18
74336;BME280;62755;-33.398;-70.572;2023-08-24T00:28:49;93375.38;;;8.85;71.99
74336;BME280;62755;-33.398;-70.572;2023-08-24T00:31:18;93385.22;;;8.99;71.70
74336;BME280;62755;-33.398;-70.572;2023-08-24T00:33:49;93385.56;;;9.05;72.32
74336;BME280;62755;-33.398;-70.572;2023-08-24T00:36:19;93382.72;;;8.74;73.21
74336;BME280;62755;-33.398;-70.572;2023-08-24T00:38:50;93383.84;;;8.77;72.63
74336;BME280;62755;-33.398;-70.572;2023-08-24T00:41:20;93390.69;;;8.81;72.18
74336;BME280;62755;-33.398;-70.572;2023-08-24T00:43:52;93387.22;;;8.84;72.88
74336;BME280;62755;-33.398;-70.572;2023-08-24T00:46:21;93387.59;;;8.86;72.80
74336;BME280;62755;-33.398;-70.572;2023-08-24T00:48:56;93387.59;;;8.86;73.10
74336;BME280;62755;-33.398;-70.572;2023-08-24T00:51:25;93390.63;;;8.88;73.28
74336;BME280;62755;-33.398;-70.572;2023-08-24T00:53:55;93393.69;;;8.91;72.99
74336;BME280;62755;-33.398;-70.572;2023-08-24T00:56:25;93401.25;;;9.03;72.88
74336;BME280;62755;-33.398;-70.572;2023-08-24T00:58:56;93409.00;;;8.86;73.79
74336;BME280;62755;-33.398;-70.572;2023-08-24T01:01:26;93407.34;;;9.03;73.10
74336;BME280;62755;-33.398;-70.572;2023-08-24T01:03:58;93402.06;;;8.96;73.00
74336;BME280;62755;-33.398;-70.572;2023-08-24T01:06:27;93410.75;;;9.11;74.84
74336;BME280;62755;-33.398;-70.572;2023-08-24T01:08:57;93391.28;;;9.07;75.63
74336;BME280;62755;-33.398;-70.572;2023-08-24T01:11:35;93412.94;;;9.23;77.76
74336;BME280;62755;-33.398;-70.572;2023-08-24T01:14:17;93415.31;;;9.14;78.64
74336;BME280;62755;-33.398;-70.572;2023-08-24T01:16:51;93421.81;;;9.13;79.66
74336;BME280;62755;-33.398;-70.572;2023-08-24T01:19:37;93425.69;;;9.05;80.44
74336;BME280;62755;-33.398;-70.572;2023-08-24T01:22:15;93441.06;;;8.86;81.45
74336;BME280;62755;-33.398;-70.572;2023-08-24T01:24:54;93440.72;;;8.84;82.49
74336;BME280;62755;-33.398;-70.572;2023-08-24T01:27:29;93436.09;;;8.92;82.52
74336;BME280;62755;-33.398;-70.572;2023-08-24T01:30:02;93429.19;;;8.95;82.67
74336;BME280;62755;-33.398;-70.572;2023-08-24T01:32:32;93432.97;;;9.01;81.94
74336;BME280;62755;-33.398;-70.572;2023-08-24T01:35:03;93435.56;;;9.15;81.93
74336;BME280;62755;-33.398;-70.572;2023-08-24T01:37:34;93428.94;;;9.30;81.34
74336;BME280;62755;-33.398;-70.572;2023-08-24T01:40:06;93433.91;;;9.31;81.54
74336;BME280;62755;-33.398;-70.572;2023-08-24T01:42:45;93417.88;;;9.28;81.82
74336;BME280;62755;-33.398;-70.572;2023-08-24T01:45:18;93427.03;;;9.30;82.17
74336;BME280;62755;-33.398;-70.572;2023-08-24T01:47:49;93428.53;;;9.35;82.02
74336;BME280;62755;-33.398;-70.572;2023-08-24T01:50:20;93423.59;;;9.30;82.21
74336;BME280;62755;-33.398;-70.572;2023-08-24T01:52:50;93423.19;;;9.35;82.00
74336;BME280;62755;-33.398;-70.572;2023-08-24T01:55:20;93421.16;;;9.46;81.33
74336;BME280;62755;-33.398;-70.572;2023-08-24T01:57:51;93426.97;;;9.41;81.36
74336;BME280;62755;-33.398;-70.572;2023-08-24T02:00:21;93414.72;;;9.40;81.25
74336;BME280;62755;-33.398;-70.572;2023-08-24T02:02:50;93407.84;;;9.39;80.73
74336;BME280;62755;-33.398;-70.572;2023-08-24T02:05:20;93399.50;;;9.30;80.94
74336;BME280;62755;-33.398;-70.572;2023-08-24T02:07:51;93394.88;;;9.37;80.80
74336;BME280;62755;-33.398;-70.572;2023-08-24T02:10:23;93396.47;;;9.28;81.27
74336;BME280;62755;-33.398;-70.572;2023-08-24T02:12:54;93401.03;;;9.31;81.24
74336;BME280;62755;-33.398;-70.572;2023-08-24T02:15:23;93392.94;;;9.38;80.65
74336;BME280;62755;-33.398;-70.572;2023-08-24T02:17:53;93397.06;;;9.46;79.99
74336;BME280;62755;-33.398;-70.572;2023-08-24T02:20:22;93373.63;;;9.16;80.47
74336;BME280;62755;-33.398;-70.572;2023-08-24T02:22:52;93390.75;;;9.26;81.03
74336;BME280;62755;-33.398;-70.572;2023-08-24T02:25:21;93389.59;;;9.27;80.08
74336;BME280;62755;-33.398;-70.572;2023-08-24T02:27:51;93407.13;;;9.35;80.66
74336;BME280;62755;-33.398;-70.572;2023-08-24T02:30:22;93404.09;;;9.33;80.84
74336;BME280;62755;-33.398;-70.572;2023-08-24T02:32:51;93410.28;;;9.23;80.75
74336;BME280;62755;-33.398;-70.572;2023-08-24T02:35:21;93404.56;;;9.21;81.22
74336;BME280;62755;-33.398;-70.572;2023-08-24T02:37:50;93411.00;;;9.27;81.11
74336;BME280;62755;-33.398;-70.572;2023-08-24T02:40:22;93407.16;;;9.28;80.71
74336;BME280;62755;-33.398;-70.572;2023-08-24T02:42:51;93405.66;;;9.27;81.13
74336;BME280;62755;-33.398;-70.572;2023-08-24T02:45:22;93406.88;;;9.19;80.26
74336;BME280;62755;-33.398;-70.572;2023-08-24T02:47:52;93409.59;;;9.12;80.96
74336;BME280;62755;-33.398;-70.572;2023-08-24T02:50:21;93405.72;;;9.16;80.32
74336;BME280;62755;-33.398;-70.572;2023-08-24T02:52:51;93409.50;;;9.22;80.58
74336;BME280;62755;-33.398;-70.572;2023-08-24T02:55:20;93409.47;;;9.26;80.11
74336;BME280;62755;-33.398;-70.572;2023-08-24T02:57:49;93417.50;;;9.26;80.63
74336;BME280;62755;-33.398;-70.572;2023-08-24T03:00:21;93382.84;;;9.12;80.82
74336;BME280;62755;-33.398;-70.572;2023-08-24T03:02:50;93405.69;;;9.23;80.87
74336;BME280;62755;-33.398;-70.572;2023-08-24T03:05:20;93404.91;;;9.23;80.68
74336;BME280;62755;-33.398;-70.572;2023-08-24T03:07:49;93415.16;;;9.35;80.44
74336;BME280;62755;-33.398;-70.572;2023-08-24T03:10:19;93405.53;;;9.41;80.05
74336;BME280;62755;-33.398;-70.572;2023-08-24T03:12:48;93406.25;;;9.48;79.71
74336;BME280;62755;-33.398;-70.572;2023-08-24T03:15:18;93416.53;;;9.50;79.27
74336;BME280;62755;-33.398;-70.572;2023-08-24T03:17:50;93416.19;;;9.48;79.11
74336;BME280;62755;-33.398;-70.572;2023-08-24T03:20:20;93421.50;;;9.51;78.68
74336;BME280;62755;-33.398;-70.572;2023-08-24T03:22:49;93417.66;;;9.56;78.56
74336;BME280;62755;-33.398;-70.572;2023-08-24T03:25:19;93417.66;;;9.56;79.10
74336;BME280;62755;-33.398;-70.572;2023-08-24T03:27:48;93409.25;;;9.54;78.61
74336;BME280;62755;-33.398;-70.572;2023-08-24T03:30:18;93381.09;;;9.39;78.02
74336;BME280;62755;-33.398;-70.572;2023-08-24T03:32:51;93400.13;;;9.48;78.36
74336;BME280;62755;-33.398;-70.572;2023-08-24T03:35:21;93390.94;;;9.49;78.34
74336;BME280;62755;-33.398;-70.572;2023-08-24T03:37:51;93397.78;;;9.53;78.52
74336;BME280;62755;-33.398;-70.572;2023-08-24T03:40:21;93392.78;;;9.55;78.41
74336;BME280;62755;-33.398;-70.572;2023-08-24T03:42:50;93390.16;;;9.52;78.53
74336;BME280;62755;-33.398;-70.572;2023-08-24T03:45:20;93371.91;;;9.40;78.25
74336;BME280;62755;-33.398;-70.572;2023-08-24T03:47:51;93391.72;;;9.46;78.74
74336;BME280;62755;-33.398;-70.572;2023-08-24T03:50:21;93393.25;;;9.47;78.61
74336;BME280;62755;-33.398;-70.572;2023-08-24T03:52:51;93365.97;;;9.18;78.77
74336;BME280;62755;-33.398;-70.572;2023-08-24T03:55:21;93401.03;;;9.31;78.79
74336;BME280;62755;-33.398;-70.572;2023-08-24T03:57:51;93401.16;;;9.17;79.00
74336;BME280;62755;-33.398;-70.572;2023-08-24T04:00:21;93394.28;;;9.16;78.88
74336;BME280;62755;-33.398;-70.572;2023-08-24T04:02:53;93392.66;;;9.29;78.90
74336;BME280;62755;-33.398;-70.572;2023-08-24T04:05:22;93386.06;;;9.37;77.90
74336;BME280;62755;-33.398;-70.572;2023-08-24T04:07:52;93382.63;;;9.36;77.70
74336;BME280;62755;-33.398;-70.572;2023-08-24T04:10:21;93385.72;;;9.35;77.49
74336;BME280;62755;-33.398;-70.572;2023-08-24T04:12:51;93384.88;;;9.45;76.56
74336;BME280;62755;-33.398;-70.572;2023-08-24T04:15:21;93384.94;;;9.34;77.32
74336;BME280;62755;-33.398;-70.572;2023-08-24T04:17:52;93383.44;;;9.30;77.87
74336;BME280;62755;-33.398;-70.572;2023-08-24T04:20:22;93381.94;;;9.29;78.25
74336;BME280;62755;-33.398;-70.572;2023-08-24T04:22:51;93379.63;;;9.31;78.66
74336;BME280;62755;-33.398;-70.572;2023-08-24T04:25:21;93384.13;;;9.41;78.62
74336;BME280;62755;-33.398;-70.572;2023-08-24T04:27:50;93372.56;;;9.51;77.85
74336;BME280;62755;-33.398;-70.572;2023-08-24T04:30:20;93368.75;;;9.48;77.60
74336;BME280;62755;-33.398;-70.572;2023-08-24T04:32:49;93371.78;;;9.54;77.49
74336;BME280;62755;-33.398;-70.572;2023-08-24T04:35:21;93375.63;;;9.53;77.73
74336;BME280;62755;-33.398;-70.572;2023-08-24T04:37:51;93370.94;;;9.60;77.81
74336;BME280;62755;-33.398;-70.572;2023-08-24T04:40:21;93348.25;;;9.35;78.26
74336;BME280;62755;-33.398;-70.572;2023-08-24T04:42:50;93372.56;;;9.51;77.64
74336;BME280;62755;-33.398;-70.572;2023-08-24T04:45:20;93383.03;;;9.35;78.78
74336;BME280;62755;-33.398;-70.572;2023-08-24T04:47:50;93390.00;;;9.25;79.34
74336;BME280;62755;-33.398;-70.572;2023-08-24T04:50:21;93391.06;;;9.35;79.40
74336;BME280;62755;-33.398;-70.572;2023-08-24T04:52:51;93376.59;;;9.29;79.22
74336;BME280;62755;-33.398;-70.572;2023-08-24T04:55:20;93373.97;;;9.22;80.14
74336;BME280;62755;-33.398;-70.572;2023-08-24T04:57:50;93378.13;;;9.26;79.65
74336;BME280;62755;-33.398;-70.572;2023-08-24T05:00:20;93371.25;;;9.29;79.66
74336;BME280;62755;-33.398;-70.572;2023-08-24T05:02:49;93381.88;;;9.39;79.07
74336;BME280;62755;-33.398;-70.572;2023-08-24T05:05:21;93376.66;;;9.22;79.42
74336;BME280;62755;-33.398;-70.572;2023-08-24T05:07:51;93382.13;;;9.08;80.29
74336;BME280;62755;-33.398;-70.572;2023-08-24T05:10:21;93375.59;;;9.09;80.46
74336;BME280;62755;-33.398;-70.572;2023-08-24T05:12:51;93369.19;;;8.99;80.42
74336;BME280;62755;-33.398;-70.572;2023-08-24T05:15:21;93376.41;;;9.06;80.50
74336;BME280;62755;-33.398;-70.572;2023-08-24T05:17:51;93375.22;;;9.07;80.03
74336;BME280;62755;-33.398;-70.572;2023-08-24T05:20:23;93372.94;;;9.09;79.73
74336;BME280;62755;-33.398;-70.572;2023-08-24T05:22:53;93361.44;;;9.08;79.97
74336;BME280;62755;-33.398;-70.572;2023-08-24T05:25:23;93364.50;;;9.14;79.58
74336;BME280;62755;-33.398;-70.572;2023-08-24T05:27:53;93359.50;;;9.16;79.02
74336;BME280;62755;-33.398;-70.572;2023-08-24T05:30:23;93361.38;;;9.19;78.69
74336;BME280;62755;-33.398;-70.572;2023-08-24T05:32:56;93372.81;;;9.23;78.45
74336;BME280;62755;-33.398;-70.572;2023-08-24T05:35:27;93366.72;;;9.19;79.03
74336;BME280;62755;-33.398;-70.572;2023-08-24T05:37:57;93367.09;;;9.21;78.49
74336;BME280;62755;-33.398;-70.572;2023-08-24T05:40:26;93360.59;;;9.18;78.29
74336;BME280;62755;-33.398;-70.572;2023-08-24T05:42:56;93362.19;;;9.16;77.50
74336;BME280;62755;-33.398;-70.572;2023-08-24T05:45:25;93355.66;;;9.17;77.20
74336;BME280;62755;-33.398;-70.572;2023-08-24T05:47:55;93365.97;;;9.22;77.23
74336;BME280;62755;-33.398;-70.572;2023-08-24T05:50:26;93365.97;;;9.22;77.33
74336;BME280;62755;-33.398;-70.572;2023-08-24T05:52:56;93361.69;;;9.28;77.31
74336;BME280;62755;-33.398;-70.572;2023-08-24T05:55:25;93363.63;;;9.24;77.20
74336;BME280;62755;-33.398;-70.572;2023-08-24T05:57:55;93357.56;;;9.20;77.61
74336;BME280;62755;-33.398;-70.572;2023-08-24T06:00:25;93352.28;;;9.09;77.71
74336;BME280;62755;-33.398;-70.572;2023-08-24T06:02:55;93353.75;;;9.17;77.92
74336;BME280;62755;-33.398;-70.572;2023-08-24T06:05:26;93350.34;;;9.13;77.84
74336;BME280;62755;-33.398;-70.572;2023-08-24T06:07:56;93359.84;;;9.21;77.86
74336;BME280;62755;-33.398;-70.572;2023-08-24T06:10:25;93354.44;;;9.25;77.65
74336;BME280;62755;-33.398;-70.572;2023-08-24T06:12:55;93343.31;;;9.30;77.64
74336;BME280;62755;-33.398;-70.572;2023-08-24T06:15:24;93349.09;;;9.25;77.04
74336;BME280;62755;-33.398;-70.572;2023-08-24T06:17:55;93352.19;;;9.23;77.43
74336;BME280;62755;-33.398;-70.572;2023-08-24T06:20:28;93348.00;;;9.19;77.52
74336;BME280;62755;-33.398;-70.572;2023-08-24T06:22:57;93352.25;;;9.13;77.59
74336;BME280;62755;-33.398;-70.572;2023-08-24T06:25:27;93338.50;;;9.11;77.87
74336;BME280;62755;-33.398;-70.572;2023-08-24T06:27:57;93347.72;;;9.06;78.16
74336;BME280;62755;-33.398;-70.572;2023-08-24T06:30:28;93346.50;;;9.18;77.55
74336;BME280;62755;-33.398;-70.572;2023-08-24T06:32:59;93351.88;;;9.11;77.92
74336;BME280;62755;-33.398;-70.572;2023-08-24T06:35:31;93342.34;;;9.10;77.78
74336;BME280;62755;-33.398;-70.572;2023-08-24T06:38:01;93346.53;;;9.11;77.24
74336;BME280;62755;-33.398;-70.572;2023-08-24T06:40:31;93346.16;;;9.09;77.34
74336;BME280;62755;-33.398;-70.572;2023-08-24T06:43:00;93350.00;;;9.08;77.71
74336;BME280;62755;-33.398;-70.572;2023-08-24T06:45:31;93337.84;;;9.00;78.03
74336;BME280;62755;-33.398;-70.572;2023-08-24T06:48:00;93339.31;;;9.08;78.26
74336;BME280;62755;-33.398;-70.572;2023-08-24T06:50:31;93346.94;;;9.09;77.91
74336;BME280;62755;-33.398;-70.572;2023-08-24T06:53:01;93340.81;;;9.09;77.35
74336;BME280;62755;-33.398;-70.572;2023-08-24T06:55:31;93332.38;;;9.14;77.77
74336;BME280;62755;-33.398;-70.572;2023-08-24T06:58:00;93331.63;;;9.13;77.62
74336;BME280;62755;-33.398;-70.572;2023-08-24T07:00:32;93327.44;;;9.09;77.22
74336;BME280;62755;-33.398;-70.572;2023-08-24T07:03:03;93334.69;;;9.12;76.92
74336;BME280;62755;-33.398;-70.572;2023-08-24T07:05:34;93332.38;;;9.14;76.78
74336;BME280;62755;-33.398;-70.572;2023-08-24T07:08:04;93338.47;;;9.18;76.67
74336;BME280;62755;-33.398;-70.572;2023-08-24T07:10:34;93340.84;;;9.05;77.58
74336;BME280;62755;-33.398;-70.572;2023-08-24T07:13:04;93339.28;;;9.11;77.68
74336;BME280;62755;-33.398;-70.572;2023-08-24T07:15:34;93333.59;;;9.06;77.85
74336;BME280;62755;-33.398;-70.572;2023-08-24T07:18:04;93319.63;;;8.84;79.10
74336;BME280;62755;-33.398;-70.572;2023-08-24T07:20:37;93340.88;;;9.02;79.54
74336;BME280;62755;-33.398;-70.572;2023-08-24T07:23:07;93343.13;;;9.07;79.22
74336;BME280;62755;-33.398;-70.572;2023-08-24T07:25:36;93341.59;;;9.09;77.90
74336;BME280;62755;-33.398;-70.572;2023-08-24T07:28:06;93341.66;;;8.99;78.21
74336;BME280;62755;-33.398;-70.572;2023-08-24T07:30:36;93348.50;;;9.03;78.40
74336;BME280;62755;-33.398;-70.572;2023-08-24T07:33:06;93337.44;;;9.01;78.46
74336;BME280;62755;-33.398;-70.572;2023-08-24T07:35:38;93340.16;;;8.98;78.53
74336;BME280;62755;-33.398;-70.572;2023-08-24T07:38:07;93341.69;;;8.95;78.50
74336;BME280;62755;-33.398;-70.572;2023-08-24T07:40:37;93329.09;;;8.96;78.63
74336;BME280;62755;-33.398;-70.572;2023-08-24T07:43:06;93338.25;;;8.95;78.76
74336;BME280;62755;-33.398;-70.572;2023-08-24T07:45:36;93332.44;;;9.07;78.27
74336;BME280;62755;-33.398;-70.572;2023-08-24T07:48:06;93332.88;;;9.02;78.85
74336;BME280;62755;-33.398;-70.572;2023-08-24T07:50:38;93332.91;;;8.95;79.86
74336;BME280;62755;-33.398;-70.572;2023-08-24T07:53:08;93337.13;;;8.96;79.64
74336;BME280;62755;-33.398;-70.572;2023-08-24T07:55:37;93333.28;;;8.97;79.39
74336;BME280;62755;-33.398;-70.572;2023-08-24T07:58:07;93331.81;;;8.92;79.58
74336;BME280;62755;-33.398;-70.572;2023-08-24T08:00:36;93335.59;;;8.95;79.49
74336;BME280;62755;-33.398;-70.572;2023-08-24T08:03:06;93327.19;;;8.93;79.69
74336;BME280;62755;-33.398;-70.572;2023-08-24T08:05:37;93327.19;;;8.93;80.05
74336;BME280;62755;-33.398;-70.572;2023-08-24T08:08:07;93320.38;;;8.84;80.04
74336;BME280;62755;-33.398;-70.572;2023-08-24T08:10:42;93329.56;;;8.83;80.50
74336;BME280;62755;-33.398;-70.572;2023-08-24T08:13:12;93288.47;;;8.63;80.97
74336;BME280;62755;-33.398;-70.572;2023-08-24T08:15:41;93320.34;;;8.92;80.32
74336;BME280;62755;-33.398;-70.572;2023-08-24T08:18:11;93319.59;;;8.88;80.86
74336;BME280;62755;-33.398;-70.572;2023-08-24T08:20:42;93329.50;;;8.94;80.66
74336;BME280;62755;-33.398;-70.572;2023-08-24T08:23:11;93327.63;;;8.88;80.88
74336;BME280;62755;-33.398;-70.572;2023-08-24T08:25:41;93322.66;;;8.90;81.00
74336;BME280;62755;-33.398;-70.572;2023-08-24T08:28:14;93323.41;;;8.86;81.21
74336;BME280;62755;-33.398;-70.572;2023-08-24T08:30:48;93326.53;;;8.81;81.51
74336;BME280;62755;-33.398;-70.572;2023-08-24T08:33:18;93326.59;;;8.74;81.95
74336;BME280;62755;-33.398;-70.572;2023-08-24T08:35:50;93334.19;;;8.79;81.58
74336;BME280;62755;-33.398;-70.572;2023-08-24T08:38:20;93324.22;;;8.83;82.07
74336;BME280;62755;-33.398;-70.572;2023-08-24T08:40:54;93324.28;;;8.76;82.13
74336;BME280;62755;-33.398;-70.572;2023-08-24T08:43:25;93324.28;;;8.76;82.14
74336;BME280;62755;-33.398;-70.572;2023-08-24T08:45:56;93324.28;;;8.76;81.97
74336;BME280;62755;-33.398;-70.572;2023-08-24T08:48:26;93321.25;;;8.74;82.31
74336;BME280;62755;-33.398;-70.572;2023-08-24T08:50:59;93320.44;;;8.77;82.45
74336;BME280;62755;-33.398;-70.572;2023-08-24T08:53:30;93312.38;;;8.81;81.77
74336;BME280;62755;-33.398;-70.572;2023-08-24T08:56:01;93318.13;;;8.79;81.87
74336;BME280;62755;-33.398;-70.572;2023-08-24T08:58:32;93318.94;;;8.73;82.39
74336;BME280;62755;-33.398;-70.572;2023-08-24T09:01:03;93320.44;;;8.77;81.99
74336;BME280;62755;-33.398;-70.572;2023-08-24T09:03:35;93321.56;;;8.80;81.95
74336;BME280;62755;-33.398;-70.572;2023-08-24T09:06:06;93325.34;;;8.82;81.77
74336;BME280;62755;-33.398;-70.572;2023-08-24T09:08:36;93323.41;;;8.86;81.38
74336;BME280;62755;-33.398;-70.572;2023-08-24T09:11:05;93328.75;;;8.86;81.29
74336;BME280;62755;-33.398;-70.572;2023-08-24T09:13:36;93323.41;;;8.86;80.85
74336;BME280;62755;-33.398;-70.572;2023-08-24T09:16:06;93331.81;;;8.88;79.65
74336;BME280;62755;-33.398;-70.572;2023-08-24T09:18:44;93326.41;;;8.96;79.20
74336;BME280;62755;-33.398;-70.572;2023-08-24T09:21:16;93332.44;;;9.07;79.63
74336;BME280;62755;-33.398;-70.572;2023-08-24T09:23:52;93334.81;;;8.98;80.13
74336;BME280;62755;-33.398;-70.572;2023-08-24T09:26:29;93342.50;;;8.88;80.42
74336;BME280;62755;-33.398;-70.572;2023-08-24T09:28:57;93343.31;;;8.85;81.23
74336;BME280;62755;-33.398;-70.572;2023-08-24T09:31:35;93345.59;;;8.83;81.77
74336;BME280;62755;-33.398;-70.572;2023-08-24T09:34:05;93347.13;;;8.84;81.06
74336;BME280;62755;-33.398;-70.572;2023-08-24T09:36:37;93297.75;;;8.48;81.54
74336;BME280;62755;-33.398;-70.572;2023-08-24T09:39:07;93349.41;;;8.86;82.06
74336;BME280;62755;-33.398;-70.572;2023-08-24T09:41:40;93350.16;;;8.90;81.83
74336;BME280;62755;-33.398;-70.572;2023-08-24T09:44:10;93351.69;;;8.88;81.81
74336;BME280;62755;-33.398;-70.572;2023-08-24T09:46:40;93354.75;;;8.90;81.55
74336;BME280;62755;-33.398;-70.572;2023-08-24T09:49:11;93351.63;;;8.95;81.24
74336;BME280;62755;-33.398;-70.572;2023-08-24T09:51:43;93349.31;;;9.00;80.58
74336;BME280;62755;-33.398;-70.572;2023-08-24T09:54:13;93347.53;;;8.79;80.98
74336;BME280;62755;-33.398;-70.572;2023-08-24T09:56:47;93361.22;;;8.88;81.23
74336;BME280;62755;-33.398;-70.572;2023-08-24T09:59:18;93357.44;;;8.82;81.28
74336;BME280;62755;-33.398;-70.572;2023-08-24T10:01:50;93354.06;;;8.78;81.63
74336;BME280;62755;-33.398;-70.572;2023-08-24T10:04:23;93358.63;;;8.78;81.95
74336;BME280;62755;-33.398;-70.572;2023-08-24T10:06:58;93364.69;;;8.85;81.08
74336;BME280;62755;-33.398;-70.572;2023-08-24T10:09:41;93352.63;;;8.63;82.19
74336;BME280;62755;-33.398;-70.572;2023-08-24T10:12:13;93331.38;;;8.42;82.90
74336;BME280;62755;-33.398;-70.572;2023-08-24T10:14:47;93332.94;;;8.36;83.01
74336;BME280;62755;-33.398;-70.572;2023-08-24T10:17:23;93296.34;;;8.26;81.99
74336;BME280;62755;-33.398;-70.572;2023-08-24T10:19:53;93351.13;;;8.55;82.42
74336;BME280;62755;-33.398;-70.572;2023-08-24T10:22:25;93347.34;;;8.49;82.51
74336;BME280;62755;-33.398;-70.572;2023-08-24T10:24:55;93352.72;;;8.46;82.66
74336;BME280;62755;-33.398;-70.572;2023-08-24T10:27:24;93354.59;;;8.52;82.72
74336;BME280;62755;-33.398;-70.572;2023-08-24T10:29:56;93355.72;;;8.58;82.19
74336;BME280;62755;-33.398;-70.572;2023-08-24T10:32:27;93361.81;;;8.62;81.56
74336;BME280;62755;-33.398;-70.572;2023-08-24T10:34:57;93361.44;;;8.60;81.89
74336;BME280;62755;-33.398;-70.572;2023-08-24T10:37:28;93368.72;;;8.56;82.35
74336;BME280;62755;-33.398;-70.572;2023-08-24T10:39:58;93369.47;;;8.57;81.82
74336;BME280;62755;-33.398;-70.572;2023-08-24T10:42:27;93363.00;;;8.54;81.62
74336;BME280;62755;-33.398;-70.572;2023-08-24T10:44:57;93372.88;;;8.64;81.52
74336;BME280;62755;-33.398;-70.572;2023-08-24T10:47:28;93375.47;;;8.71;81.92
74336;BME280;62755;-33.398;-70.572;2023-08-24T10:50:00;93376.28;;;8.68;81.44
74336;BME280;62755;-33.398;-70.572;2023-08-24T10:52:36;93379.31;;;8.70;81.20
74336;BME280;62755;-33.398;-70.572;2023-08-24T10:55:23;93378.56;;;8.66;80.94
74336;BME280;62755;-33.398;-70.572;2023-08-24T10:57:58;93390.03;;;8.63;81.51
74336;BME280;62755;-33.398;-70.572;2023-08-24T11:00:27;93386.16;;;8.71;81.00
74336;BME280;62755;-33.398;-70.572;2023-08-24T11:02:58;93390.38;;;8.72;80.98
74336;BME280;62755;-33.398;-70.572;2023-08-24T11:05:29;93383.00;;;8.87;80.38
74336;BME280;62755;-33.398;-70.572;2023-08-24T11:08:01;93358.75;;;8.60;81.26
74336;BME280;62755;-33.398;-70.572;2023-08-24T11:10:34;93395.22;;;8.92;81.77
74336;BME280;62755;-33.398;-70.572;2023-08-24T11:13:12;93394.78;;;8.97;81.85
74336;BME280;62755;-33.398;-70.572;2023-08-24T11:15:42;93398.25;;;8.94;81.28
74336;BME280;62755;-33.398;-70.572;2023-08-24T11:18:23;93396.81;;;8.82;81.11
74336;BME280;62755;-33.398;-70.572;2023-08-24T11:20:54;93376.66;;;8.70;80.93
74336;BME280;62755;-33.398;-70.572;2023-08-24T11:23:26;93405.94;;;8.84;81.31
74336;BME280;62755;-33.398;-70.572;2023-08-24T11:25:57;93397.56;;;8.86;81.49
74336;BME280;62755;-33.398;-70.572;2023-08-24T11:28:28;93359.22;;;8.48;81.50
74336;BME280;62755;-33.398;-70.572;2023-08-24T11:30:58;93410.91;;;8.82;80.04
74336;BME280;62755;-33.398;-70.572;2023-08-24T11:33:29;93406.00;;;8.77;80.45
74336;BME280;62755;-33.398;-70.572;2023-08-24T11:35:59;93409.03;;;8.79;80.29
74336;BME280;62755;-33.398;-70.572;2023-08-24T11:38:41;93415.91;;;8.80;80.89
74336;BME280;62755;-33.398;-70.572;2023-08-24T11:41:12;93419.75;;;8.79;80.34
74336;BME280;62755;-33.398;-70.572;2023-08-24T11:43:42;93416.69;;;8.77;80.21
74336;BME280;62755;-33.398;-70.572;2023-08-24T11:46:12;93371.41;;;8.49;80.32
74336;BME280;62755;-33.398;-70.572;2023-08-24T11:48:42;93419.00;;;8.75;80.54
74336;BME280;62755;-33.398;-70.572;2023-08-24T11:51:12;93415.13;;;8.83;79.68
74336;BME280;62755;-33.398;-70.572;2023-08-24T11:53:45;93426.59;;;8.80;80.12
74336;BME280;62755;-33.398;-70.572;2023-08-24T11:56:15;93425.13;;;8.72;79.69
74336;BME280;62755;-33.398;-70.572;2023-08-24T11:58:48;93395.47;;;8.53;79.46
74336;BME280;62755;-33.398;-70.572;2023-08-24T12:01:19;93425.13;;;8.72;79.65
74336;BME280;62755;-33.398;-70.572;2023-08-24T12:03:49;93420.53;;;8.76;79.83
74336;BME280;62755;-33.398;-70.572;2023-08-24T12:06:18;93424.38;;;8.72;80.03
74336;BME280;62755;-33.398;-70.572;2023-08-24T12:08:49;93432.78;;;8.70;79.24
74336;BME280;62755;-33.398;-70.572;2023-08-24T12:11:20;93430.44;;;8.79;78.86
74336;BME280;62755;-33.398;-70.572;2023-08-24T12:13:53;93429.75;;;8.68;79.83
74336;BME280;62755;-33.398;-70.572;2023-08-24T12:16:23;93437.28;;;8.80;79.53
74336;BME280;62755;-33.398;-70.572;2023-08-24T12:18:54;93428.94;;;8.78;78.98
74336;BME280;62755;-33.398;-70.572;2023-08-24T12:21:24;93435.72;;;8.86;79.02
74336;BME280;62755;-33.398;-70.572;2023-08-24T12:24:00;93446.31;;;9.08;78.34
74336;BME280;62755;-33.398;-70.572;2023-08-24T12:26:31;93450.34;;;9.30;78.16
74336;BME280;62755;-33.398;-70.572;2023-08-24T12:29:02;93454.50;;;9.38;76.87
74336;BME280;62755;-33.398;-70.572;2023-08-24T12:31:32;93464.38;;;9.48;75.56
74336;BME280;62755;-33.398;-70.572;2023-08-24T12:34:03;93460.22;;;9.40;76.01
74336;BME280;62755;-33.398;-70.572;2023-08-24T12:36:33;93449.31;;;9.17;75.84
74336;BME280;62755;-33.398;-70.572;2023-08-24T12:39:05;93465.28;;;9.24;75.50
74336;BME280;62755;-33.398;-70.572;2023-08-24T12:41:37;93462.28;;;9.22;76.52
74336;BME280;62755;-33.398;-70.572;2023-08-24T12:44:07;93464.06;;;9.39;76.08
74336;BME280;62755;-33.398;-70.572;2023-08-24T12:46:36;93459.81;;;9.45;75.14
74336;BME280;62755;-33.398;-70.572;2023-08-24T12:49:06;93469.69;;;9.55;75.12
74336;BME280;62755;-33.398;-70.572;2023-08-24T12:51:36;93466.50;;;9.67;74.87
74336;BME280;62755;-33.398;-70.572;2023-08-24T12:54:08;93468.84;;;9.61;74.81
74336;BME280;62755;-33.398;-70.572;2023-08-24T12:56:39;93466.84;;;9.69;74.13
74336;BME280;62755;-33.398;-70.572;2023-08-24T12:59:09;93471.84;;;9.67;74.34